Time;durP1;ratioP1;P1;durP2;ratioP2;P2;SDS_P1;SDS_P2;PMS_P1;PMS_P2;Temp;Humidity;BMP_temperature;BMP_pressure;BME280_temperature;BME280_humidity;BME280_pressure;Samples;Min_cycle;Max_cycle;Signal;HPM_P1;HPM_P2
2021/03/19 00:00:24;;;;;;;4.78;3.67;;;;;;;-2.72;93.67;92850.06;2065037;28;20419;-80
2021/03/19 00:01:25;;;;;;;4.15;3.75;;;;;;;-2.74;93.64;92857.53;2069024;28;20032;-80
2021/03/19 00:02:25;;;;;;;4.38;3.97;;;;;;;-2.74;94.24;92857.53;2069066;28;20488;-80
2021/03/19 00:03:26;;;;;;;4.72;3.50;;;;;;;-2.67;93.70;92850.59;2068921;28;20088;-80
2021/03/19 00:04:26;;;;;;;4.03;3.63;;;;;;;-2.69;93.08;92852.03;2068914;28;20026;-80
2021/03/19 00:05:28;;;;;;;4.47;3.90;;;;;;;-2.72;92.93;92856.09;2070187;28;20018;-80
2021/03/19 00:06:29;;;;;;;7.40;3.33;;;;;;;-2.61;93.00;92849.25;2068593;28;20483;-81
2021/03/19 00:07:50;;;;;;;4.22;3.42;;;;;;;-2.66;92.39;92853.97;2068784;28;20858;-79
2021/03/19 00:08:51;;;;;;;3.47;3.15;;;;;;;-2.74;92.91;92858.28;2068701;28;20457;-81
2021/03/19 00:09:52;;;;;;;5.43;3.63;;;;;;;-2.76;93.88;92851.88;2068978;28;20040;-80
2021/03/19 00:10:53;;;;;;;3.95;3.30;;;;;;;-2.72;93.57;92856.09;2072863;28;20535;-80
2021/03/19 00:11:53;;;;;;;3.85;3.40;;;;;;;-2.74;94.13;92857.53;2077194;28;20525;-80
2021/03/19 00:12:55;;;;;;;4.35;3.25;;;;;;;-2.69;93.40;92852.03;2068828;28;20029;-82
2021/03/19 00:13:56;;;;;;;3.47;3.10;;;;;;;-2.72;92.81;92856.09;2068615;28;20525;-81
2021/03/19 00:14:56;;;;;;;4.25;3.20;;;;;;;-2.60;93.33;92855.97;2068716;28;20540;-80
2021/03/19 00:15:57;;;;;;;5.30;3.80;;;;;;;-2.68;93.63;92856.91;2068460;28;20018;-80
2021/03/19 00:16:57;;;;;;;3.72;3.42;;;;;;;-2.68;93.86;92856.91;2060805;28;20096;-79
2021/03/19 00:17:59;;;;;;;5.22;3.63;;;;;;;-2.65;93.70;92858.09;2052830;28;20537;-80
2021/03/19 00:19:00;;;;;;;3.42;3.10;;;;;;;-2.64;93.92;92859.63;2068746;28;20026;-79
2021/03/19 00:20:01;;;;;;;4.07;3.42;;;;;;;-2.61;93.74;92853.72;2069252;28;20444;-79
2021/03/19 00:21:03;;;;;;;3.92;3.33;;;;;;;-2.66;92.81;92848.75;2069466;28;20916;-80
2021/03/19 00:22:04;;;;;;;4.15;3.33;;;;;;;-2.65;92.41;92855.47;2068842;28;20437;-79
2021/03/19 00:23:05;;;;;;;3.67;3.28;;;;;;;-2.68;93.61;92856.16;2068745;28;20791;-80
2021/03/19 00:24:06;;;;;;;4.38;3.28;;;;;;;-2.64;94.64;92857.00;2068769;28;20427;-79
2021/03/19 00:25:08;;;;;;;4.57;3.13;;;;;;;-2.70;94.79;92850.50;2068208;28;20483;-79
2021/03/19 00:26:09;;;;;;;5.30;3.20;;;;;;;-2.61;94.61;92864.19;2066340;28;20066;-79
2021/03/19 00:27:09;;;;;;;4.75;3.75;;;;;;;-2.68;93.29;92856.16;2076853;28;20480;-79
2021/03/19 00:28:14;;;;;;;3.83;3.25;;;;;;;-2.65;93.51;92858.09;2068633;28;20506;-79
2021/03/19 00:29:15;;;;;;;3.78;3.08;;;;;;;-2.69;93.05;92850.16;2068749;28;20034;-80
2021/03/19 00:30:16;;;;;;;3.85;3.33;;;;;;;-2.71;93.71;92849.00;2069189;28;20453;-80
2021/03/19 00:31:16;;;;;;;3.53;3.22;;;;;;;-2.70;93.70;92846.03;2072807;28;20033;-80
2021/03/19 00:32:17;;;;;;;3.60;3.30;;;;;;;-2.65;94.68;92851.00;2070207;28;20528;-80
2021/03/19 00:33:18;;;;;;;4.38;3.45;;;;;;;-2.70;94.84;92853.13;2069412;28;20391;-80
2021/03/19 00:34:18;;;;;;;3.78;3.30;;;;;;;-2.72;95.21;92855.31;2069289;28;20037;-80
2021/03/19 00:35:19;;;;;;;3.83;3.22;;;;;;;-2.69;95.72;92852.78;2069486;28;20437;-80
2021/03/19 00:36:19;;;;;;;4.22;3.60;;;;;;;-2.63;96.07;92854.06;2068158;28;20471;-80
2021/03/19 00:37:20;;;;;;;4.13;3.40;;;;;;;-2.68;95.54;92850.91;2068524;28;20037;-80
2021/03/19 00:38:21;;;;;;;3.78;3.45;;;;;;;-2.60;95.71;92850.00;2076721;28;20113;-79
2021/03/19 00:39:21;;;;;;;3.60;3.30;;;;;;;-2.66;94.96;92854.72;2068461;28;20030;-80
2021/03/19 00:40:23;;;;;;;3.25;2.95;;;;;;;-2.64;94.27;92847.28;2068571;28;20144;-79
2021/03/19 00:41:23;;;;;;;5.80;3.65;;;;;;;-2.60;94.23;92850.75;2068764;28;20026;-80
2021/03/19 00:42:24;;;;;;;4.28;3.80;;;;;;;-2.61;94.99;92851.84;2068251;28;20549;-80
2021/03/19 00:43:24;;;;;;;5.70;4.10;;;;;;;-2.57;96.13;92847.47;2069575;28;20041;-80
2021/03/19 00:44:25;;;;;;;5.30;3.58;;;;;;;-2.69;94.58;92852.03;2060457;28;20030;-80
2021/03/19 00:45:26;;;;;;;4.82;3.45;;;;;;;-2.66;94.18;92849.50;2060608;28;20467;-80
2021/03/19 00:46:27;;;;;;;3.90;3.50;;;;;;;-2.71;93.72;92847.16;2068230;28;20048;-79
2021/03/19 00:47:27;;;;;;;4.63;3.40;;;;;;;-2.66;93.24;92849.50;2060615;28;20480;-79
2021/03/19 00:48:27;;;;;;;3.95;3.42;;;;;;;-2.50;92.80;92854.72;2068875;28;20053;-79
2021/03/19 00:49:28;;;;;;;4.47;3.50;;;;;;;-2.54;93.23;92848.66;2069172;28;20026;-79
2021/03/19 00:50:34;;;;;;;4.20;3.53;;;;;;;-2.61;93.51;92851.09;2068319;28;20027;-80
2021/03/19 00:51:34;;;;;;;3.85;3.45;;;;;;;-2.52;93.39;92846.44;2068718;28;20037;-79
2021/03/19 00:52:35;;;;;;;5.38;3.70;;;;;;;-2.57;94.04;92849.31;2076794;28;20457;-79
2021/03/19 00:53:35;;;;;;;4.53;3.70;;;;;;;-2.62;94.00;92852.19;2068338;28;20026;-79
2021/03/19 00:54:35;;;;;;;5.97;4.10;;;;;;;-2.63;94.00;92856.69;2060053;28;20034;-79
2021/03/19 00:55:37;;;;;;;4.25;3.85;;;;;;;-2.63;94.61;92854.06;2066638;28;20101;-81
2021/03/19 00:56:37;;;;;;;4.82;3.83;;;;;;;-2.66;95.30;92854.72;2068902;28;20498;-79
2021/03/19 00:57:38;;;;;;;4.47;3.60;;;;;;;-2.62;95.44;92858.19;2068429;28;20507;-79
2021/03/19 00:58:39;;;;;;;3.90;3.47;;;;;;;-2.57;94.85;92851.94;2068544;28;20631;-79
2021/03/19 00:59:39;;;;;;;4.28;3.50;;;;;;;-2.64;94.80;92849.16;2061978;28;20077;-79
2021/03/19 01:00:40;;;;;;;5.38;3.47;;;;;;;-2.67;94.55;92848.00;2060405;28;20130;-79
2021/03/19 01:01:40;;;;;;;6.55;3.80;;;;;;;-2.63;94.27;92846.22;2068319;28;20026;-79
2021/03/19 01:02:40;;;;;;;4.85;3.30;;;;;;;-2.44;92.72;92845.50;2068478;28;20030;-79
2021/03/19 01:03:41;;;;;;;4.57;3.53;;;;;;;-2.52;93.73;92849.06;2068413;28;20052;-79
2021/03/19 01:04:42;;;;;;;4.90;3.17;;;;;;;-2.49;93.74;92842.41;2068517;28;20145;-79
2021/03/19 01:05:44;;;;;;;4.03;3.60;;;;;;;-2.59;93.61;92847.06;2061134;28;20034;-80
2021/03/19 01:06:44;;;;;;;3.90;3.03;;;;;;;-2.59;93.55;92844.44;2052676;28;20035;-79
2021/03/19 01:07:45;;;;;;;4.85;3.80;;;;;;;-2.61;94.73;92851.84;2060307;28;20457;-80
2021/03/19 01:08:46;;;;;;;4.30;3.55;;;;;;;-2.58;95.20;92840.72;2068484;28;20561;-79
2021/03/19 01:09:46;;;;;;;4.95;3.45;;;;;;;-2.61;94.80;92844.00;2068929;28;20068;-79
2021/03/19 01:10:54;;;;;;;5.75;4.05;;;;;;;-2.66;94.80;92848.75;2073992;28;20394;-79
2021/03/19 01:11:54;;;;;;;5.57;3.60;;;;;;;-2.60;94.08;92842.91;2062314;28;20117;-82
2021/03/19 01:12:56;;;;;;;3.67;3.25;;;;;;;-2.65;94.40;92840.53;2068230;28;21039;-81
2021/03/19 01:13:56;;;;;;;4.80;3.90;;;;;;;-2.66;94.67;92841.66;2068516;28;20061;-80
2021/03/19 01:14:57;;;;;;;4.95;3.78;;;;;;;-2.70;94.91;92846.03;2068229;28;20819;-80
2021/03/19 01:15:57;;;;;;;5.20;3.85;;;;;;;-2.69;95.36;92838.94;2059882;28;20466;-80
2021/03/19 01:16:58;;;;;;;5.63;3.78;;;;;;;-2.72;95.02;92843.00;2059994;28;20519;-81
2021/03/19 01:17:58;;;;;;;4.75;3.75;;;;;;;-2.71;95.01;92834.06;2068351;28;20479;-80
2021/03/19 01:18:59;;;;;;;5.63;3.50;;;;;;;-2.79;95.16;92846.22;2068308;28;20061;-80
2021/03/19 01:20:00;;;;;;;4.90;3.50;;;;;;;-2.73;94.51;92838.09;2068211;28;20029;-79
2021/03/19 01:21:01;;;;;;;3.83;3.42;;;;;;;-2.75;94.36;92838.44;2068324;28;20118;-80
2021/03/19 01:22:01;;;;;;;5.22;3.90;;;;;;;-2.74;95.00;92839.22;2056055;28;20492;-80
2021/03/19 01:23:02;;;;;;;5.32;3.35;;;;;;;-2.78;95.11;92839.88;2060002;28;20019;-79
2021/03/19 01:24:03;;;;;;;5.20;3.90;;;;;;;-2.78;95.45;92834.66;2063924;28;20030;-81
2021/03/19 01:25:06;;;;;;;6.72;3.60;;;;;;;-2.73;95.33;92836.25;2068070;28;20481;-79
2021/03/19 01:26:07;;;;;;;4.55;3.47;;;;;;;-2.78;95.55;92836.50;2056929;28;20522;-79
2021/03/19 01:27:07;;;;;;;3.75;3.35;;;;;;;-2.76;95.74;92831.72;2064075;28;20589;-80
2021/03/19 01:28:08;;;;;;;4.78;3.53;;;;;;;-2.82;95.77;92831.19;2067985;28;20042;-80
2021/03/19 01:29:08;;;;;;;4.50;3.50;;;;;;;-2.76;95.07;92828.34;2059742;28;20483;-81
2021/03/19 01:30:12;;;;;;;4.28;3.28;;;;;;;-2.70;94.79;92827.72;2044033;28;20034;-79
2021/03/19 01:31:14;;;;;;;3.80;3.33;;;;;;;-2.71;93.75;92825.47;2062163;28;20511;-81
2021/03/19 01:32:14;;;;;;;5.03;3.67;;;;;;;-2.77;94.03;92824.94;2061597;28;20947;-80
2021/03/19 01:33:14;;;;;;;5.00;3.80;;;;;;;-2.78;95.06;92826.81;2060302;28;20997;-81
2021/03/19 01:34:15;;;;;;;4.43;3.42;;;;;;;-2.75;94.38;92824.63;2067592;28;20025;-79
2021/03/19 01:35:19;;;;;;;4.72;3.50;;;;;;;-2.74;94.68;92828.75;2059929;28;20507;-80
2021/03/19 01:36:20;;;;;;;4.63;3.70;;;;;;;-2.77;94.55;92822.31;2068010;28;20430;-79
2021/03/19 01:37:20;;;;;;;3.88;3.33;;;;;;;-2.87;95.06;92822.84;2060133;28;20462;-79
2021/03/19 01:38:21;;;;;;;3.97;3.60;;;;;;;-2.91;95.56;92820.16;2068048;28;20472;-79
2021/03/19 01:39:21;;;;;;;5.13;3.60;;;;;;;-2.89;95.90;92819.81;2068059;28;20097;-80
2021/03/19 01:40:30;;;;;;;4.25;3.53;;;;;;;-2.86;95.55;92819.13;2075917;28;20064;-80
2021/03/19 01:41:31;;;;;;;3.47;3.17;;;;;;;-2.85;95.07;92824.03;2068222;28;20687;-79
2021/03/19 01:42:32;;;;;;;5.72;3.25;;;;;;;-2.89;94.80;92817.22;2068094;28;20457;-79
2021/03/19 01:43:40;;;;;;;5.88;3.70;;;;;;;-2.90;94.00;92813.06;2069050;28;20106;-81
2021/03/19 01:45:18;;;;;;;8.57;3.55;;;;;;;-2.95;94.32;92815.94;2067893;28;20034;-79
2021/03/19 01:46:56;;;;;;;4.00;3.47;;;;;;;-3.02;94.65;92811.31;2064531;28;20487;-80
2021/03/19 01:48:34;;;;;;;4.13;3.60;;;;;;;-3.07;94.79;92816.78;2073479;28;20440;-81
2021/03/19 01:50:11;;;;;;;3.22;2.83;;;;;;;-3.14;94.47;92812.13;2064207;28;20456;-79
2021/03/19 01:51:53;;;;;;;4.95;3.30;;;;;;;-3.16;94.62;92816.94;2064979;28;20460;-80
2021/03/19 01:53:31;;;;;;;5.00;3.13;;;;;;;-3.17;94.91;92807.56;2055906;28;20459;-82
2021/03/19 01:55:09;;;;;;;4.63;3.05;;;;;;;-3.24;95.02;92809.28;2067942;28;20508;-80
2021/03/19 01:57:06;;;;;;;3.30;3.00;;;;;;;-3.26;94.74;92801.75;2058578;28;20521;-80
2021/03/19 01:58:44;;;;;;;3.88;2.78;;;;;;;-3.21;94.33;92801.50;2067021;28;20466;-80
2021/03/19 02:00:22;;;;;;;3.40;3.08;;;;;;;-3.29;94.89;92802.44;2063045;28;20461;-79
2021/03/19 02:01:59;;;;;;;4.68;3.10;;;;;;;-3.26;94.88;92801.75;2059413;28;20647;-79
2021/03/19 02:03:37;;;;;;;3.67;3.00;;;;;;;-3.28;94.68;92788.28;2063862;28;20982;-81
2021/03/19 02:05:15;;;;;;;4.35;3.00;;;;;;;-3.24;95.10;92790.97;2064536;28;20536;-80
2021/03/19 02:06:53;;;;;;;3.97;2.88;;;;;;;-3.27;95.94;92800.25;2072935;28;20463;-79
2021/03/19 02:08:31;;;;;;;6.18;3.38;;;;;;;-3.41;96.02;92795.44;2066928;28;20453;-79
2021/03/19 02:10:08;;;;;;;3.30;2.90;;;;;;;-3.39;95.72;92793.22;2067563;28;20453;-79
2021/03/19 02:11:46;;;;;;;3.22;2.92;;;;;;;-3.42;95.58;92790.56;2064452;28;20491;-80
2021/03/19 02:13:24;;;;;;;5.40;3.30;;;;;;;-3.52;95.28;92789.16;2065588;28;20568;-81
2021/03/19 02:15:01;;;;;;;4.38;3.00;;;;;;;-3.59;94.61;92787.16;2071041;28;20465;-79
2021/03/19 02:16:39;;;;;;;3.22;2.75;;;;;;;-3.64;95.24;92781.41;2075911;28;20425;-80
2021/03/19 02:18:17;;;;;;;3.67;2.75;;;;;;;-3.66;95.07;92780.97;2064807;28;20457;-80
2021/03/19 02:19:55;;;;;;;3.40;3.05;;;;;;;-3.60;94.69;92783.03;2070982;28;21043;-80
2021/03/19 02:21:33;;;;;;;3.17;2.88;;;;;;;-3.66;95.12;92784.34;2066561;28;21021;-80
2021/03/19 02:23:10;;;;;;;6.43;3.35;;;;;;;-3.72;95.89;92788.31;2063908;28;20444;-80
2021/03/19 02:24:48;;;;;;;5.60;3.10;;;;;;;-3.80;95.84;92781.38;2069607;28;20464;-83
2021/03/19 02:26:26;;;;;;;4.45;2.92;;;;;;;-3.88;96.09;92779.66;2072477;28;20779;-81
2021/03/19 02:28:04;;;;;;;3.50;3.03;;;;;;;-3.87;96.41;92781.94;2075111;28;20441;-80
2021/03/19 02:29:42;;;;;;;4.00;2.75;;;;;;;-3.95;96.95;92772.41;2055813;28;20524;-80
2021/03/19 02:31:13;;;;;;;3.47;3.05;;;;;;;-3.97;95.54;92776.44;2065367;28;20480;-79
2021/03/19 02:32:16;;;;;;;6.57;2.95;;;;;;;-4.02;95.53;92774.06;2065921;28;20508;-79
2021/03/19 02:33:17;;;;;;;3.80;3.05;;;;;;;-4.00;95.49;92769.28;2059975;28;20538;-80
2021/03/19 02:34:17;;;;;;;4.07;3.40;;;;;;;-3.95;94.78;92771.63;2067759;28;20891;-81
2021/03/19 02:35:22;;;;;;;4.65;4.13;;;;;;;-3.98;94.84;92767.09;2076496;28;20454;-79
2021/03/19 02:36:25;;;;;;;3.90;3.38;;;;;;;-3.96;95.33;92777.94;2076177;28;20483;-79
2021/03/19 02:37:29;;;;;;;4.78;3.30;;;;;;;-4.08;95.44;92769.09;2076172;28;20448;-79
2021/03/19 02:38:29;;;;;;;4.30;3.30;;;;;;;-4.04;95.30;92766.56;2067670;28;20459;-79
2021/03/19 02:39:30;;;;;;;5.57;3.60;;;;;;;-4.21;95.44;92762.41;2067742;28;20500;-79
2021/03/19 02:40:30;;;;;;;3.53;3.22;;;;;;;-4.20;95.82;92763.91;2076642;28;20075;-79
2021/03/19 02:41:30;;;;;;;3.80;3.38;;;;;;;-4.26;95.28;92759.25;2076424;28;20494;-80
2021/03/19 02:42:32;;;;;;;4.47;4.07;;;;;;;-4.21;95.26;92761.66;2059589;28;20496;-79
2021/03/19 02:43:32;;;;;;;3.75;3.17;;;;;;;-4.29;95.55;92755.47;2053952;28;20042;-79
2021/03/19 02:44:33;;;;;;;3.70;3.30;;;;;;;-4.25;95.46;92758.19;2067496;28;20801;-80
2021/03/19 02:45:34;;;;;;;4.82;3.42;;;;;;;-4.29;95.42;92757.31;2063451;28;20092;-80
2021/03/19 02:46:34;;;;;;;5.53;3.80;;;;;;;-4.31;95.50;92750.56;2059465;28;20877;-80
2021/03/19 02:47:35;;;;;;;4.03;3.50;;;;;;;-4.36;94.70;92758.63;2059714;28;20507;-80
2021/03/19 02:48:36;;;;;;;5.75;3.40;;;;;;;-4.36;94.78;92748.19;2063067;28;20133;-80
2021/03/19 02:49:36;;;;;;;4.75;3.33;;;;;;;-4.38;94.44;92750.38;2067549;28;20037;-80
2021/03/19 02:50:38;;;;;;;5.35;3.35;;;;;;;-4.41;95.12;92753.66;2076328;28;20062;-81
2021/03/19 02:51:38;;;;;;;5.38;3.22;;;;;;;-4.38;95.09;92750.38;2067733;28;20066;-80
2021/03/19 02:52:41;;;;;;;4.53;3.20;;;;;;;-4.43;95.55;92748.00;2067793;28;20468;-80
2021/03/19 02:53:42;;;;;;;3.60;3.30;;;;;;;-4.44;94.80;92743.88;2075793;28;20084;-80
2021/03/19 02:54:42;;;;;;;3.28;2.70;;;;;;;-4.46;94.94;92743.44;2059182;28;20494;-80
2021/03/19 02:55:43;;;;;;;3.97;3.40;;;;;;;-4.48;94.73;92750.06;2056803;28;20026;-81
2021/03/19 02:56:43;;;;;;;3.80;3.10;;;;;;;-4.52;94.88;92744.78;2067593;28;20107;-79
2021/03/19 02:57:44;;;;;;;3.45;2.80;;;;;;;-4.45;94.15;92749.41;2067854;28;20097;-81
2021/03/19 02:58:44;;;;;;;5.07;2.97;;;;;;;-4.54;95.42;92739.13;2059320;28;20027;-81
2021/03/19 02:59:45;;;;;;;4.30;2.85;;;;;;;-4.50;95.10;92729.56;2052865;28;20035;-79
2021/03/19 03:00:46;;;;;;;3.10;2.83;;;;;;;-4.47;95.02;92738.56;2059085;28;20090;-80
2021/03/19 03:01:47;;;;;;;5.28;3.35;;;;;;;-4.40;94.47;92736.16;2059647;28;20037;-79
2021/03/19 03:02:48;;;;;;;3.63;3.15;;;;;;;-4.41;94.99;92735.38;2067646;28;20449;-80
2021/03/19 03:03:49;;;;;;;5.57;3.13;;;;;;;-4.39;95.32;92735.03;2067633;28;20544;-79
2021/03/19 03:04:49;;;;;;;4.13;3.50;;;;;;;-4.44;95.27;92735.28;2059465;28;20485;-80
2021/03/19 03:05:49;;;;;;;4.93;3.35;;;;;;;-4.49;94.42;92730.31;2070145;28;20034;-80
2021/03/19 03:06:52;;;;;;;6.10;3.40;;;;;;;-4.56;94.81;92739.47;2076220;28;20037;-80
2021/03/19 03:07:53;;;;;;;4.47;3.20;;;;;;;-4.43;95.13;92736.81;2067705;28;20109;-80
2021/03/19 03:08:53;;;;;;;3.65;3.35;;;;;;;-4.56;94.83;92736.09;2067742;28;20763;-80
2021/03/19 03:09:55;;;;;;;6.35;3.33;;;;;;;-4.63;94.73;92731.44;2067568;28;20044;-80
2021/03/19 03:10:55;;;;;;;2.90;2.60;;;;;;;-4.66;95.26;92737.28;2063125;28;20396;-82
2021/03/19 03:11:57;;;;;;;5.35;2.90;;;;;;;-4.66;95.37;92731.31;2059214;28;20452;-82
2021/03/19 03:12:57;;;;;;;3.67;3.35;;;;;;;-4.67;95.75;92737.63;2059539;28;20026;-81
2021/03/19 03:13:58;;;;;;;4.63;3.90;;;;;;;-4.64;95.76;92736.97;2043467;29;20458;-80
2021/03/19 03:14:58;;;;;;;4.38;3.33;;;;;;;-4.67;96.56;92737.63;2043586;29;20035;-80
2021/03/19 03:15:59;;;;;;;4.05;3.63;;;;;;;-4.76;95.89;92740.38;2059168;28;20034;-81
2021/03/19 03:17:02;;;;;;;4.03;3.63;;;;;;;-4.79;96.58;92735.78;2051547;28;20027;-80
2021/03/19 03:18:03;;;;;;;4.15;3.15;;;;;;;-4.79;96.66;92735.78;2051508;28;20520;-80
2021/03/19 03:19:06;;;;;;;4.72;3.15;;;;;;;-4.79;96.04;92735.78;2059494;28;20457;-80
2021/03/19 03:20:10;;;;;;;4.25;3.42;;;;;;;-4.76;96.01;92745.56;2055906;28;20961;-81
2021/03/19 03:21:10;;;;;;;5.65;3.50;;;;;;;-4.77;96.28;92740.69;2059583;28;20584;-80
2021/03/19 03:22:11;;;;;;;3.75;3.35;;;;;;;-4.74;96.18;92742.63;2059704;28;20504;-80
2021/03/19 03:23:13;;;;;;;3.72;3.35;;;;;;;-4.69;96.06;92745.03;2059384;28;20030;-81
2021/03/19 03:24:14;;;;;;;5.50;3.47;;;;;;;-4.73;95.55;92749.38;2051199;28;21064;-82
2021/03/19 03:25:17;;;;;;;3.63;3.33;;;;;;;-4.84;95.04;92744.59;2059618;28;20456;-80
2021/03/19 03:26:17;;;;;;;5.38;3.47;;;;;;;-4.80;95.27;92744.72;2059375;28;20434;-81
2021/03/19 03:27:18;;;;;;;3.88;3.38;;;;;;;-4.90;94.68;92739.97;2051476;28;20543;-80
2021/03/19 03:28:19;;;;;;;4.10;3.33;;;;;;;-4.82;94.72;92744.28;2043632;29;20042;-80
2021/03/19 03:29:22;;;;;;;4.85;3.58;;;;;;;-4.87;95.32;92747.88;2059275;28;20045;-80
2021/03/19 03:30:30;;;;;;;7.60;3.95;;;;;;;-4.93;95.21;92748.41;2065169;28;20529;-83
2021/03/19 03:31:30;;;;;;;4.07;3.67;;;;;;;-4.92;95.06;92745.47;2059593;28;20956;-81
2021/03/19 03:32:30;;;;;;;5.47;3.65;;;;;;;-4.87;95.74;92752.34;2061617;28;20524;-81
2021/03/19 03:33:31;;;;;;;5.70;3.60;;;;;;;-4.99;95.83;92749.75;2045223;29;20032;-81
2021/03/19 03:34:32;;;;;;;4.38;3.85;;;;;;;-4.95;96.27;92748.75;2045116;29;20038;-81
2021/03/19 03:35:33;;;;;;;4.45;3.17;;;;;;;-4.95;95.78;92745.41;2052761;28;20506;-80
2021/03/19 03:36:34;;;;;;;5.28;3.88;;;;;;;-4.97;95.00;92752.78;2048709;29;20469;-81
2021/03/19 03:37:34;;;;;;;3.78;3.40;;;;;;;-4.91;94.33;92754.09;2057194;28;20379;-80
2021/03/19 03:38:35;;;;;;;3.92;3.53;;;;;;;-4.94;95.00;92749.50;2061005;28;20040;-80
2021/03/19 03:39:35;;;;;;;3.90;3.50;;;;;;;-4.95;94.76;92748.00;2041278;29;20042;-82
2021/03/19 03:40:41;;;;;;;3.70;3.22;;;;;;;-4.97;93.37;92750.16;2053334;28;20454;-80
2021/03/19 03:41:43;;;;;;;4.90;3.78;;;;;;;-4.94;93.23;92744.31;2045509;29;20106;-81
2021/03/19 03:42:43;;;;;;;4.15;3.45;;;;;;;-5.01;93.50;92746.69;2053223;28;20529;-81
2021/03/19 03:43:44;;;;;;;5.75;3.88;;;;;;;-5.04;93.69;92745.50;2050297;28;20493;-81
2021/03/19 03:44:44;;;;;;;5.20;3.75;;;;;;;-5.02;93.72;92737.34;2052999;28;20026;-81
2021/03/19 03:45:45;;;;;;;5.60;3.58;;;;;;;-5.02;93.73;92742.56;2052822;28;20081;-80
2021/03/19 03:46:46;;;;;;;6.00;3.47;;;;;;;-5.05;93.92;92743.97;2044745;29;20130;-82
2021/03/19 03:47:46;;;;;;;4.53;3.60;;;;;;;-5.04;94.77;92747.38;2045039;29;20019;-80
2021/03/19 03:48:48;;;;;;;4.35;3.95;;;;;;;-5.08;94.93;92753.22;2050872;28;20031;-81
2021/03/19 03:49:48;;;;;;;4.63;3.30;;;;;;;-5.12;94.66;92749.75;2052920;28;20035;-80
2021/03/19 03:50:49;;;;;;;5.55;3.80;;;;;;;-5.10;94.49;92752.00;2052761;28;20916;-80
2021/03/19 03:51:50;;;;;;;4.78;3.88;;;;;;;-5.13;94.85;92752.69;2045024;28;20028;-80
2021/03/19 03:52:50;;;;;;;3.67;3.38;;;;;;;-5.15;94.87;92744.41;2044638;29;20518;-81
2021/03/19 03:53:51;;;;;;;4.53;3.50;;;;;;;-5.11;94.95;92740.06;2061075;28;20026;-81
2021/03/19 03:54:52;;;;;;;4.47;3.78;;;;;;;-5.10;94.39;92737.13;2052823;28;20118;-80
2021/03/19 03:55:52;;;;;;;4.00;3.60;;;;;;;-5.14;95.39;92738.88;2052264;28;20041;-80
2021/03/19 03:56:53;;;;;;;5.93;4.43;;;;;;;-5.09;94.15;92743.13;2061086;28;20066;-81
2021/03/19 03:57:53;;;;;;;6.38;4.00;;;;;;;-5.14;94.70;92738.13;2061047;28;20027;-80
2021/03/19 03:58:54;;;;;;;4.78;3.50;;;;;;;-5.12;94.08;92747.13;2060803;28;20039;-80
2021/03/19 03:59:55;;;;;;;5.38;3.60;;;;;;;-5.18;94.28;92747.66;2053961;28;20037;-83
2021/03/19 04:00:56;;;;;;;5.88;4.10;;;;;;;-5.18;94.92;92748.44;2053234;28;20374;-84
2021/03/19 04:01:57;;;;;;;4.25;3.85;;;;;;;-5.19;95.99;92754.72;2052861;28;20396;-81
2021/03/19 04:03:00;;;;;;;4.68;3.78;;;;;;;-5.18;95.87;92752.88;2045073;29;20439;-81
2021/03/19 04:04:01;;;;;;;6.50;4.18;;;;;;;-5.21;96.08;92754.31;2060750;28;20038;-80
2021/03/19 04:05:04;;;;;;;4.20;3.67;;;;;;;-5.17;96.51;92757.03;2052710;28;20501;-81
2021/03/19 04:06:06;;;;;;;4.20;3.78;;;;;;;-5.09;96.03;92756.16;2053664;28;20396;-80
2021/03/19 04:07:06;;;;;;;5.70;4.22;;;;;;;-4.98;94.97;92757.22;2057732;28;20421;-81
2021/03/19 04:08:08;;;;;;;5.32;3.83;;;;;;;-4.95;95.40;92753.22;2052872;28;20867;-81
2021/03/19 04:09:09;;;;;;;5.13;3.45;;;;;;;-4.97;94.57;92750.16;2052997;28;20439;-81
2021/03/19 04:10:10;;;;;;;4.88;3.83;;;;;;;-5.02;95.29;92750.38;2060449;28;20441;-81
2021/03/19 04:11:14;;;;;;;5.70;3.75;;;;;;;-5.02;94.33;92758.19;2059097;28;20073;-80
2021/03/19 04:12:15;;;;;;;5.28;4.10;;;;;;;-4.96;94.59;92749.84;2057834;28;20426;-80
2021/03/19 04:13:15;;;;;;;5.55;3.88;;;;;;;-4.93;93.79;92751.78;2061063;28;21103;-80
2021/03/19 04:14:16;;;;;;;5.55;4.15;;;;;;;-4.91;93.63;92746.25;2060976;28;20126;-83
2021/03/19 04:15:18;;;;;;;4.10;3.58;;;;;;;-4.96;94.11;92744.63;2052618;28;20136;-84
2021/03/19 04:16:19;;;;;;;5.60;3.95;;;;;;;-4.87;94.01;92749.75;2052967;28;20141;-82
2021/03/19 04:17:27;;;;;;;3.95;3.35;;;;;;;-4.88;93.96;92748.94;2052915;28;20466;-81
2021/03/19 04:18:28;;;;;;;5.15;3.80;;;;;;;-4.90;94.61;92748.53;2061915;28;20876;-80
2021/03/19 04:19:28;;;;;;;4.30;3.90;;;;;;;-4.84;94.29;92746.44;2060869;28;20500;-80
2021/03/19 04:20:31;;;;;;;4.10;3.70;;;;;;;-4.80;94.38;92747.31;2052704;28;20027;-82
2021/03/19 04:21:32;;;;;;;5.70;4.40;;;;;;;-4.76;94.09;92745.56;2059105;28;20377;-80
2021/03/19 04:22:32;;;;;;;5.15;3.90;;;;;;;-4.81;94.05;92733.53;2054538;28;20512;-80
2021/03/19 04:23:35;;;;;;;4.97;3.60;;;;;;;-4.71;93.96;92736.78;2060909;28;20058;-80
2021/03/19 04:24:35;;;;;;;5.78;4.05;;;;;;;-4.80;93.77;92729.06;2068875;28;20324;-80
2021/03/19 04:25:36;;;;;;;6.30;3.88;;;;;;;-4.84;93.60;92736.78;2068631;28;20461;-82
2021/03/19 04:26:36;;;;;;;6.43;3.97;;;;;;;-4.82;94.34;92736.47;2068455;28;20946;-80
2021/03/19 04:27:43;;;;;;;5.85;3.72;;;;;;;-4.78;94.57;92745.16;2068728;28;20040;-81
2021/03/19 04:28:44;;;;;;;4.90;3.67;;;;;;;-4.76;94.81;92744.81;2068893;28;20026;-81
2021/03/19 04:29:46;;;;;;;5.15;4.10;;;;;;;-4.78;95.43;92734.72;2060846;28;20451;-80
2021/03/19 04:30:47;;;;;;;5.80;3.88;;;;;;;-4.74;94.76;92738.19;2045849;28;20122;-81
2021/03/19 04:31:47;;;;;;;5.50;3.60;;;;;;;-4.89;94.34;92737.00;2060788;28;20518;-81
2021/03/19 04:32:49;;;;;;;4.30;3.53;;;;;;;-4.85;94.34;92737.88;2072292;28;20449;-81
2021/03/19 04:33:50;;;;;;;4.93;3.55;;;;;;;-4.92;93.56;92732.44;2068836;28;20026;-81
2021/03/19 04:34:51;;;;;;;3.95;3.25;;;;;;;-4.97;93.11;92735.28;2060676;28;21018;-81
2021/03/19 04:36:05;;;;;;;4.70;3.92;;;;;;;-4.91;93.65;92738.44;2044524;28;20455;-80
2021/03/19 04:37:07;;;;;;;4.80;3.53;;;;;;;-4.90;93.15;92730.28;2047968;28;20478;-80
2021/03/19 04:38:12;;;;;;;5.97;3.60;;;;;;;-4.92;93.08;92729.09;2052932;28;20494;-80
2021/03/19 04:39:17;;;;;;;4.35;3.30;;;;;;;-4.87;93.56;92728.88;2068537;28;20430;-82
2021/03/19 04:40:18;;;;;;;6.03;3.28;;;;;;;-4.85;92.75;92732.66;2056916;28;20473;-81
2021/03/19 04:41:19;;;;;;;6.55;3.53;;;;;;;-4.86;93.98;92731.16;2044806;28;20863;-82
2021/03/19 04:42:19;;;;;;;4.28;3.70;;;;;;;-4.87;94.28;92724.44;2052643;28;20442;-80
2021/03/19 04:43:19;;;;;;;4.78;3.58;;;;;;;-4.87;95.08;92727.03;2061011;28;20070;-80
2021/03/19 04:44:23;;;;;;;6.05;3.83;;;;;;;-4.90;95.60;92726.94;2060335;28;20107;-81
2021/03/19 04:45:24;;;;;;;7.97;3.80;;;;;;;-5.01;95.16;92728.44;2068806;28;20034;-80
2021/03/19 04:46:24;;;;;;;7.20;3.85;;;;;;;-4.97;95.37;92737.88;2069201;28;20464;-80
2021/03/19 04:47:25;;;;;;;3.92;3.53;;;;;;;-4.94;94.82;92731.28;2069367;28;20034;-81
2021/03/19 04:48:25;;;;;;;4.15;3.65;;;;;;;-4.90;95.36;92730.28;2069933;28;20036;-81
2021/03/19 04:49:26;;;;;;;4.22;3.60;;;;;;;-4.86;95.09;92733.00;2060527;28;20495;-81
2021/03/19 04:50:26;;;;;;;3.97;3.53;;;;;;;-4.85;94.70;92729.31;2051903;28;20038;-80
2021/03/19 04:51:27;;;;;;;4.72;3.40;;;;;;;-4.89;95.22;92725.84;2060576;28;20043;-80
2021/03/19 04:52:27;;;;;;;3.65;3.00;;;;;;;-4.88;94.74;92732.56;2068580;28;20038;-80
2021/03/19 04:53:28;;;;;;;4.95;3.75;;;;;;;-4.98;94.97;92733.00;2060653;28;20031;-81
2021/03/19 04:54:28;;;;;;;5.65;3.67;;;;;;;-4.92;94.58;92726.47;2052672;28;20043;-81
2021/03/19 04:55:29;;;;;;;4.68;3.80;;;;;;;-4.95;94.19;92737.59;2067750;28;20491;-82
2021/03/19 04:56:30;;;;;;;3.88;3.17;;;;;;;-4.97;94.94;92726.72;2066604;28;20100;-80
2021/03/19 04:57:30;;;;;;;5.05;3.88;;;;;;;-4.99;95.44;92729.66;2052494;28;20042;-81
2021/03/19 04:58:31;;;;;;;6.15;4.03;;;;;;;-4.95;95.34;92729.75;2058824;28;20397;-80
2021/03/19 04:59:31;;;;;;;8.35;4.22;;;;;;;-4.97;96.14;92740.50;2072623;28;20026;-79
2021/03/19 05:00:32;;;;;;;4.68;3.80;;;;;;;-4.95;95.40;92729.75;2062534;28;20030;-81
2021/03/19 05:01:32;;;;;;;7.07;3.70;;;;;;;-4.97;95.12;92729.31;2066783;28;20038;-80
2021/03/19 05:02:42;;;;;;;4.57;3.65;;;;;;;-4.94;94.86;92736.50;2068207;28;20045;-81
2021/03/19 05:03:43;;;;;;;5.82;3.63;;;;;;;-5.02;94.48;92729.53;2068785;28;20033;-80
2021/03/19 05:04:44;;;;;;;4.95;3.90;;;;;;;-5.03;93.84;92736.59;2069179;28;20070;-80
2021/03/19 05:05:44;;;;;;;4.07;3.33;;;;;;;-5.08;93.77;92729.00;2068843;28;20448;-82
2021/03/19 05:06:47;;;;;;;4.63;4.10;;;;;;;-5.17;93.78;92739.53;2064632;28;20458;-81